Time;durP1;ratioP1;P1;durP2;ratioP2;P2;SDS_P1;SDS_P2;PMS_P1;PMS_P2;Temp;Humidity;BMP_temperature;BMP_pressure;BME280_temperature;BME280_humidity;BME280_pressure;Samples;Min_cycle;Max_cycle;Signal;HPM_P1;HPM_P2
2022/04/02 00:01:50;;;;;;;17.50;8.90;;;0.80;99.90;;;;;;4941339;28;20214;-63
2022/04/02 00:04:19;;;;;;;13.17;9.20;;;0.80;99.90;;;;;;4943807;28;20199;-62
2022/04/02 00:06:50;;;;;;;19.17;10.67;;;0.80;99.90;;;;;;4925448;29;20323;-64
2022/04/02 00:09:18;;;;;;;20.90;13.93;;;0.80;99.90;;;;;;4924828;28;20207;-62
2022/04/02 00:11:45;;;;;;;29.87;13.10;;;0.80;99.90;;;;;;4925518;29;20734;-64
2022/04/02 00:14:13;;;;;;;24.20;13.03;;;0.80;53.10;;;;;;4926442;28;20270;-63
2022/04/02 00:16:41;;;;;;;15.57;9.57;;;0.80;1.00;;;;;;4944376;28;20242;-64
2022/04/02 00:19:08;;;;;;;10.83;7.87;;;0.80;1.00;;;;;;4925750;28;20222;-63
2022/04/02 00:21:38;;;;;;;14.37;7.53;;;0.80;99.90;;;;;;4939275;28;20211;-63
2022/04/02 00:24:06;;;;;;;13.87;8.23;;;0.70;81.40;;;;;;4924553;28;20210;-63
2022/04/02 00:26:43;;;;;;;13.43;7.23;;;0.70;99.90;;;;;;4925123;28;20994;-63
2022/04/02 00:29:11;;;;;;;16.00;7.23;;;0.70;99.90;;;;;;4942894;28;20203;-64
2022/04/02 00:31:40;;;;;;;12.60;7.83;;;0.70;96.60;;;;;;4922857;29;21031;-63
2022/04/02 00:34:08;;;;;;;10.03;7.70;;;0.80;1.00;;;;;;4925437;29;20202;-63
2022/04/02 00:36:37;;;;;;;10.43;6.83;;;0.80;1.00;;;;;;4938511;28;20199;-64
2022/04/02 00:39:08;;;;;;;9.60;6.83;;;0.80;1.00;;;;;;4936997;28;20613;-63
2022/04/02 00:41:36;;;;;;;10.17;7.63;;;0.80;1.00;;;;;;4924999;29;20211;-63
2022/04/02 00:44:12;;;;;;;29.10;12.10;;;0.80;1.00;;;;;;4918935;29;20199;-64
2022/04/02 00:46:42;;;;;;;28.27;10.63;;;0.80;1.00;;;;;;4931200;28;20552;-63
2022/04/02 00:49:11;;;;;;;9.80;7.53;;;0.80;26.80;;;;;;4932005;28;20206;-63
2022/04/02 00:51:43;;;;;;;14.30;7.47;;;0.80;99.90;;;;;;4924666;29;20195;-63
2022/04/02 00:54:16;;;;;;;18.93;9.30;;;0.90;1.00;;;;;;4939443;28;20614;-63
2022/04/02 00:56:44;;;;;;;15.50;8.13;;;0.90;1.00;;;;;;4941150;28;20299;-63
2022/04/02 00:59:22;;;;;;;15.70;7.50;;;0.90;99.90;;;;;;4940914;28;20303;-62
2022/04/02 01:01:49;;;;;;;13.40;6.97;;;0.90;1.00;;;;;;4937444;28;20274;-61
2022/04/02 01:04:17;;;;;;;11.77;6.97;;;0.90;1.00;;;;;;4941074;28;20187;-63
2022/04/02 01:06:45;;;;;;;15.23;7.33;;;0.90;99.90;;;;;;4909507;29;20619;-64
2022/04/02 01:09:16;;;;;;;16.13;7.50;;;0.90;99.90;;;;;;4939917;28;20718;-63
2022/04/02 01:11:48;;;;;;;12.97;6.10;;;0.90;92.20;;;;;;4924780;29;20732;-64
2022/04/02 01:14:16;;;;;;;13.60;5.73;;;0.80;1.00;;;;;;4924930;28;20214;-65
2022/04/02 01:16:46;;;;;;;13.67;5.87;;;0.90;91.00;;;;;;4923709;29;20246;-63
2022/04/02 01:19:21;;;;;;;15.03;6.57;;;0.90;1.80;;;;;;4925806;29;20207;-64
2022/04/02 01:21:57;;;;;;;13.33;5.67;;;0.90;1.00;;;;;;4915871;28;20215;-64
2022/04/02 01:24:40;;;;;;;13.63;4.60;;;0.80;1.00;;;;;;4938820;28;20234;-64
2022/04/02 01:27:07;;;;;;;8.73;4.40;;;0.80;1.00;;;;;;4925161;28;20206;-64
2022/04/02 01:29:35;;;;;;;11.37;5.00;;;0.80;1.00;;;;;;4910097;28;20225;-63
2022/04/02 01:32:08;;;;;;;13.37;4.83;;;0.80;1.00;;;;;;4926561;28;20770;-63
2022/04/02 01:34:35;;;;;;;12.30;4.30;;;0.80;1.00;;;;;;4924223;29;20237;-64
2022/04/02 01:37:16;;;;;;;7.13;4.17;;;0.80;1.00;;;;;;4924565;28;20202;-64
2022/04/02 01:39:51;;;;;;;8.83;4.30;;;0.90;1.00;;;;;;4938069;28;20186;-64
2022/04/02 01:42:24;;;;;;;10.60;4.63;;;0.80;1.00;;;;;;4925628;29;20290;-64
2022/04/02 01:45:03;;;;;;;6.20;4.00;;;0.80;99.90;;;;;;4921527;29;20255;-64
2022/04/02 01:47:39;;;;;;;6.00;3.90;;;0.80;1.00;;;;;;4916454;29;20218;-63
2022/04/02 01:50:08;;;;;;;5.50;3.50;;;0.80;99.90;;;;;;4920771;29;20609;-63
2022/04/02 01:52:42;;;;;;;4.87;3.80;;;0.90;99.90;;;;;;4923222;29;20654;-64
2022/04/02 01:55:14;;;;;;;6.20;3.70;;;0.90;99.90;;;;;;4923174;28;20215;-64
2022/04/02 01:57:46;;;;;;;5.97;3.50;;;0.80;99.90;;;;;;4930165;29;20207;-62
2022/04/02 02:00:26;;;;;;;8.80;3.70;;;0.90;99.90;;;;;;4917332;28;20684;-62
2022/04/02 02:02:53;;;;;;;8.03;3.37;;;0.90;22.50;;;;;;4931050;29;20588;-63
2022/04/02 02:05:20;;;;;;;4.97;2.87;;;0.90;1.00;;;;;;4913923;29;20302;-63
2022/04/02 02:07:51;;;;;;;4.47;3.10;;;0.80;76.50;;;;;;4947852;28;20200;-63
2022/04/02 02:10:32;;;;;;;4.27;3.10;;;0.80;70.50;;;;;;4928159;29;20219;-61
2022/04/02 02:13:04;;;;;;;6.40;3.47;;;0.80;1.00;;;;;;4937585;29;20207;-63
2022/04/02 02:15:40;;;;;;;11.47;3.37;;;0.90;1.00;;;;;;4929818;29;20231;-63
2022/04/02 02:18:10;;;;;;;6.90;3.27;;;0.80;1.00;;;;;;4931508;28;20210;-62
2022/04/02 02:20:37;;;;;;;3.73;3.10;;;0.90;1.00;;;;;;4943820;28;20533;-62
2022/04/02 02:23:04;;;;;;;7.33;3.30;;;0.80;99.90;;;;;;4917281;28;20212;-62
2022/04/02 02:25:34;;;;;;;5.50;3.30;;;0.80;1.00;;;;;;4917549;29;20232;-63
2022/04/02 02:28:01;;;;;;;5.20;2.97;;;0.80;1.00;;;;;;4932903;29;20238;-63
2022/04/02 02:30:35;;;;;;;4.77;3.17;;;0.80;1.00;;;;;;4919338;29;20198;-63
2022/04/02 02:35:52;;;;;;;3.37;2.77;;;0.80;1.00;;;;;;4931117;29;20204;-63
2022/04/02 02:38:42;;;;;;;4.87;3.13;;;0.80;1.00;;;;;;4946594;28;20203;-63
2022/04/02 02:41:20;;;;;;;6.00;2.67;;;0.80;1.00;;;;;;4923721;29;20218;-64
2022/04/02 02:43:52;;;;;;;4.93;2.60;;;0.80;99.90;;;;;;4916735;29;20207;-63
2022/04/02 02:46:34;;;;;;;3.53;2.83;;;0.90;99.90;;;;;;4933338;29;20207;-63
2022/04/02 02:49:10;;;;;;;4.27;3.10;;;0.90;99.90;;;;;;4919137;29;20539;-62
2022/04/02 02:51:41;;;;;;;4.90;2.40;;;0.90;99.90;;;;;;4936666;29;20715;-61
2022/04/02 02:54:13;;;;;;;3.43;2.67;;;0.90;99.90;;;;;;4929899;29;20214;-62
2022/04/02 02:56:44;;;;;;;3.70;2.50;;;0.90;99.90;;;;;;4916116;29;20203;-61
2022/04/02 02:59:14;;;;;;;5.40;2.70;;;0.90;99.90;;;;;;4914498;29;20203;-62
2022/04/02 03:01:44;;;;;;;6.20;2.67;;;0.80;99.90;;;;;;4929572;29;20215;-62
2022/04/02 03:04:11;;;;;;;4.53;2.63;;;0.90;99.90;;;;;;4928305;28;20258;-62
2022/04/02 03:06:41;;;;;;;8.57;2.77;;;0.80;99.90;;;;;;4919735;29;20215;-62
2022/04/02 03:09:08;;;;;;;6.23;2.93;;;0.80;1.00;;;;;;4944677;28;20194;-62
2022/04/02 03:11:35;;;;;;;5.13;2.83;;;0.80;99.90;;;;;;4931175;29;20718;-62
2022/04/02 03:14:02;;;;;;;3.43;2.50;;;0.90;1.00;;;;;;4942942;28;20195;-62
2022/04/02 03:16:29;;;;;;;4.10;2.20;;;0.80;33.20;;;;;;4935051;29;20802;-61
2022/04/02 03:19:03;;;;;;;4.40;2.47;;;0.70;40.30;;;;;;4927426;28;20208;-61
2022/04/02 03:21:30;;;;;;;4.87;2.27;;;0.80;1.00;;;;;;4927401;28;20234;-62
2022/04/02 03:23:59;;;;;;;4.17;2.53;;;0.80;54.80;;;;;;4924051;29;20258;-63
2022/04/02 03:26:32;;;;;;;4.50;2.50;;;0.70;99.90;;;;;;4943701;29;20606;-62
2022/04/02 03:29:08;;;;;;;3.73;2.40;;;0.80;3.50;;;;;;4920452;29;20561;-62
2022/04/02 03:31:36;;;;;;;4.57;2.63;;;0.80;1.00;;;;;;4924892;28;20215;-62
2022/04/02 03:34:04;;;;;;;4.10;2.63;;;0.80;1.00;;;;;;4915135;29;20743;-62
2022/04/02 03:36:32;;;;;;;4.73;2.57;;;0.80;1.00;;;;;;4928003;28;20211;-62
2022/04/02 03:39:03;;;;;;;3.97;2.27;;;0.80;66.70;;;;;;4924375;29;20218;-62
2022/04/02 03:41:30;;;;;;;5.70;2.30;;;0.70;1.00;;;;;;4922189;28;20210;-63
2022/04/02 03:44:01;;;;;;;2.50;2.20;;;0.70;1.00;;;;;;4926894;29;20210;-63
2022/04/02 03:49:20;;;;;;;3.53;2.70;;;0.70;99.90;;;;;;4942354;28;20280;-63
2022/04/02 03:51:48;;;;;;;4.20;1.90;;;0.70;1.00;;;;;;4924085;29;20203;-63
2022/04/02 03:54:22;;;;;;;4.00;2.30;;;0.70;1.00;;;;;;4927051;29;20925;-62
2022/04/02 03:56:57;;;;;;;7.27;2.67;;;0.70;1.00;;;;;;4928254;29;20721;-63
2022/04/02 03:59:25;;;;;;;2.97;2.40;;;0.70;1.00;;;;;;4929182;29;20206;-62
2022/04/02 04:01:57;;;;;;;5.80;3.17;;;0.70;1.00;;;;;;4925476;29;20226;-64
2022/04/02 04:04:27;;;;;;;5.23;2.97;;;0.60;1.00;;;;;;4916584;29;20191;-63
2022/04/02 04:06:56;;;;;;;3.40;3.10;;;0.60;1.00;;;;;;4928538;29;21163;-63
2022/04/02 04:09:29;;;;;;;2.77;2.27;;;0.70;37.70;;;;;;4925729;29;20196;-62
2022/04/02 04:11:56;;;;;;;4.40;2.67;;;0.60;1.00;;;;;;4942116;28;20231;-62
2022/04/02 04:14:28;;;;;;;3.87;2.73;;;0.70;1.00;;;;;;4928074;29;20626;-63
2022/04/02 04:16:56;;;;;;;6.17;2.90;;;0.70;1.00;;;;;;4925094;28;20239;-62
2022/04/02 04:19:24;;;;;;;6.83;2.77;;;0.70;1.00;;;;;;4932818;29;20218;-62
2022/04/02 04:21:54;;;;;;;2.90;2.60;;;0.60;1.00;;;;;;4928307;28;20250;-62
2022/04/02 04:24:23;;;;;;;5.07;2.63;;;0.70;1.00;;;;;;4915375;29;20701;-62
2022/04/02 04:26:52;;;;;;;4.00;2.70;;;0.60;1.00;;;;;;4926766;29;20211;-62
2022/04/02 04:29:19;;;;;;;5.17;2.53;;;0.60;1.00;;;;;;4928782;29;20210;-63
2022/04/02 04:31:47;;;;;;;4.60;2.57;;;0.60;1.00;;;;;;4933630;29;20214;-62
2022/04/02 04:34:17;;;;;;;4.33;2.60;;;0.70;1.00;;;;;;4910272;29;20915;-63
2022/04/02 04:36:44;;;;;;;4.57;2.83;;;0.70;1.00;;;;;;4926678;29;20870;-62
2022/04/02 04:39:12;;;;;;;5.60;3.30;;;0.60;1.00;;;;;;4924708;29;20211;-62
2022/04/02 04:41:41;;;;;;;4.50;2.87;;;0.60;1.00;;;;;;4926180;28;20222;-63
2022/04/02 04:44:14;;;;;;;8.33;3.00;;;0.60;1.00;;;;;;4926334;29;20214;-63
2022/04/02 04:46:42;;;;;;;6.20;2.80;;;0.60;1.00;;;;;;4923307;29;20512;-63
2022/04/02 04:49:12;;;;;;;5.37;2.83;;;0.60;1.00;;;;;;4916599;29;20269;-64
2022/04/02 04:51:43;;;;;;;3.80;2.70;;;0.60;1.00;;;;;;4938703;28;20195;-64
2022/04/02 04:54:10;;;;;;;4.87;3.03;;;0.70;1.00;;;;;;4911643;28;20199;-64
2022/04/02 04:56:42;;;;;;;5.87;3.30;;;0.60;1.00;;;;;;4909366;28;20694;-65
2022/04/02 04:59:12;;;;;;;8.30;4.07;;;0.60;1.00;;;;;;4926952;29;20199;-64
2022/04/02 05:01:40;;;;;;;6.87;3.40;;;0.50;1.00;;;;;;4932977;29;20301;-64
2022/04/02 05:04:07;;;;;;;6.73;3.77;;;0.60;1.00;;;;;;4924684;29;20204;-64
2022/04/02 05:06:41;;;;;;;7.13;3.77;;;0.60;1.00;;;;;;4925743;29;20246;-64
2022/04/02 05:09:09;;;;;;;6.57;3.43;;;0.60;1.00;;;;;;4925470;29;20563;-64
2022/04/02 05:11:40;;;;;;;5.87;3.60;;;0.60;1.00;;;;;;4922446;28;20223;-64
2022/04/02 05:14:12;;;;;;;4.17;3.10;;;0.60;1.00;;;;;;4924911;29;20662;-64
2022/04/02 05:16:42;;;;;;;5.23;3.60;;;0.60;1.00;;;;;;4917501;29;20334;-64
2022/04/02 05:19:12;;;;;;;5.20;2.77;;;0.60;1.00;;;;;;4935338;28;20293;-63
2022/04/02 05:21:40;;;;;;;3.73;2.73;;;0.60;1.00;;;;;;4925560;29;20226;-65
2022/04/02 05:24:11;;;;;;;4.70;2.97;;;0.60;1.00;;;;;;4923500;29;20199;-64
2022/04/02 05:26:41;;;;;;;7.33;3.10;;;0.60;1.00;;;;;;4922895;29;20206;-66
2022/04/02 05:29:15;;;;;;;5.60;3.23;;;0.60;1.00;;;;;;4926846;29;20202;-66
2022/04/02 05:31:42;;;;;;;6.33;2.67;;;0.60;1.00;;;;;;4925649;29;20238;-66
2022/04/02 05:34:11;;;;;;;4.77;3.20;;;0.70;1.00;;;;;;4925307;28;20215;-66
2022/04/02 05:36:38;;;;;;;4.90;2.73;;;0.70;1.00;;;;;;4926642;29;20199;-66
2022/04/02 05:39:05;;;;;;;4.17;3.10;;;0.70;1.00;;;;;;4916574;29;20555;-63
2022/04/02 05:41:32;;;;;;;5.70;2.67;;;0.70;1.00;;;;;;4902812;29;20338;-63
2022/04/02 05:44:07;;;;;;;4.30;3.23;;;0.70;1.00;;;;;;4905328;28;20238;-63
2022/04/02 05:46:34;;;;;;;3.33;2.73;;;0.70;1.00;;;;;;4934719;28;20217;-63
2022/04/02 05:49:02;;;;;;;4.33;2.70;;;0.70;1.00;;;;;;4939453;28;20207;-63
2022/04/02 05:51:29;;;;;;;3.90;2.83;;;0.80;1.00;;;;;;4921464;29;20230;-63
2022/04/02 05:53:57;;;;;;;4.00;3.10;;;0.80;1.00;;;;;;4937515;28;20702;-64
2022/04/02 05:56:24;;;;;;;4.53;2.83;;;0.80;1.00;;;;;;4943829;28;20191;-65
2022/04/02 05:58:51;;;;;;;4.57;2.93;;;0.80;1.00;;;;;;4939263;28;20827;-65
2022/04/02 06:01:21;;;;;;;4.13;3.20;;;0.90;1.00;;;;;;4932668;29;20281;-64
2022/04/02 06:03:49;;;;;;;5.93;3.43;;;0.90;1.00;;;;;;4943665;28;20207;-64
2022/04/02 06:06:16;;;;;;;4.20;2.90;;;0.90;1.00;;;;;;4942506;28;20805;-64
2022/04/02 06:08:43;;;;;;;4.90;2.60;;;1.00;1.00;;;;;;4941322;29;20196;-64
2022/04/02 06:11:10;;;;;;;4.57;3.13;;;1.00;1.00;;;;;;4923444;29;20211;-64
2022/04/02 06:13:37;;;;;;;5.50;2.50;;;1.00;1.00;;;;;;4941361;28;20287;-65
2022/04/02 06:16:08;;;;;;;5.10;3.30;;;1.00;1.00;;;;;;4939717;28;20290;-64
2022/04/02 06:18:35;;;;;;;6.40;3.13;;;1.00;1.00;;;;;;4939996;28;20265;-64
2022/04/02 06:21:03;;;;;;;4.20;3.07;;;1.10;1.00;;;;;;4939051;28;20196;-64
2022/04/02 06:23:31;;;;;;;4.43;3.17;;;1.10;1.00;;;;;;4909240;28;20702;-65
2022/04/02 06:25:59;;;;;;;3.43;2.80;;;1.20;1.00;;;;;;4941791;28;20222;-64
2022/04/02 06:28:26;;;;;;;4.97;3.13;;;1.20;1.00;;;;;;4928790;28;20259;-66
2022/04/02 06:30:56;;;;;;;4.47;2.83;;;1.20;1.00;;;;;;4927362;28;20610;-64
2022/04/02 06:33:33;;;;;;;3.20;2.90;;;1.20;1.00;;;;;;4905197;28;20207;-64
2022/04/02 06:36:01;;;;;;;3.97;3.00;;;1.30;1.00;;;;;;4922924;29;20219;-64
2022/04/02 06:38:28;;;;;;;2.77;2.57;;;1.30;99.90;;;;;;4928961;28;20273;-64
2022/04/02 06:40:55;;;;;;;4.33;3.10;;;1.30;99.90;;;;;;4932119;28;20593;-64
2022/04/02 06:43:22;;;;;;;2.77;2.53;;;1.40;99.90;;;;;;4924309;28;20242;-64
2022/04/02 06:45:55;;;;;;;6.87;2.87;;;1.40;99.90;;;;;;4925978;28;20210;-63
2022/04/02 06:48:23;;;;;;;4.77;3.10;;;1.50;99.90;;;;;;4941028;28;20700;-63
2022/04/02 06:50:50;;;;;;;4.03;2.60;;;1.50;99.90;;;;;;4917684;28;20196;-63
2022/04/02 06:53:17;;;;;;;6.23;2.80;;;1.60;99.90;;;;;;4941938;28;20555;-64
2022/04/02 06:55:45;;;;;;;5.23;3.00;;;1.60;99.90;;;;;;4943975;28;20943;-63
2022/04/02 06:58:44;;;;;;;6.57;2.93;;;1.70;99.90;;;;;;4944339;28;20202;-63
2022/04/02 07:01:11;;;;;;;4.97;3.10;;;1.80;99.90;;;;;;4943080;28;20226;-63
2022/04/02 07:03:38;;;;;;;4.73;3.23;;;1.80;99.90;;;;;;4943697;28;20243;-63
2022/04/02 07:06:05;;;;;;;4.03;2.60;;;2.00;99.90;;;;;;4934508;29;20629;-63
2022/04/02 07:08:38;;;;;;;4.43;3.10;;;3.60;99.90;;;;;;4942050;28;20191;-63
2022/04/02 07:11:06;;;;;;;3.03;2.70;;;2.00;99.90;;;;;;4924408;29;20226;-63
2022/04/02 07:13:33;;;;;;;4.63;2.53;;;2.10;99.90;;;;;;4943663;28;20952;-63
2022/04/02 07:16:03;;;;;;;3.53;2.63;;;2.10;32.50;;;;;;4944891;28;21152;-63
2022/04/02 07:18:32;;;;;;;4.07;2.80;;;2.20;1.00;;;;;;4946094;28;20199;-62
2022/04/02 07:21:01;;;;;;;3.90;2.70;;;2.20;49.40;;;;;;4929697;28;20210;-63
2022/04/02 07:23:29;;;;;;;5.77;3.00;;;2.20;1.00;;;;;;4912863;28;20262;-64
2022/04/02 07:25:57;;;;;;;5.40;2.70;;;2.30;1.00;;;;;;4943092;28;20274;-64
2022/04/02 07:28:28;;;;;;;6.10;2.50;;;2.40;1.00;;;;;;4928382;28;20259;-65
2022/04/02 07:30:55;;;;;;;8.00;3.27;;;2.40;1.00;;;;;;4926305;29;20236;-62
2022/04/02 07:33:25;;;;;;;3.93;2.93;;;2.80;99.90;;;;;;4927997;28;20199;-65
2022/04/02 07:36:01;;;;;;;4.80;2.80;;;3.00;1.00;;;;;;4926316;29;20258;-65
2022/04/02 07:38:42;;;;;;;4.10;2.77;;;3.20;1.00;;;;;;4926044;29;20222;-65
2022/04/02 07:41:24;;;;;;;6.17;2.87;;;3.20;1.00;;;;;;4922500;28;20247;-65
2022/04/02 07:43:58;;;;;;;7.50;2.97;;;3.50;1.00;;;;;;4941917;28;20322;-66
2022/04/02 07:46:29;;;;;;;3.93;3.03;;;3.60;1.00;;;;;;4928327;29;20289;-64
2022/04/02 07:48:58;;;;;;;7.17;3.10;;;3.80;1.00;;;;;;4944670;28;20199;-64
2022/04/02 07:51:30;;;;;;;8.67;2.80;;;3.80;1.00;;;;;;4923040;28;20738;-66
2022/04/02 07:54:02;;;;;;;4.27;2.47;;;4.00;1.00;;;;;;4944882;28;20773;-65
2022/04/02 07:56:50;;;;;;;5.03;2.40;;;3.80;1.00;;;;;;4922608;28;20199;-66
2022/04/02 07:59:42;;;;;;;5.40;3.00;;;3.80;1.00;;;;;;4941828;28;20196;-67
2022/04/02 08:05:06;;;;;;;4.00;2.60;;;4.90;1.00;;;;;;4924963;29;20198;-65
2022/04/02 08:07:35;;;;;;;3.00;2.70;;;4.90;99.90;;;;;;4933424;29;20210;-66
2022/04/02 08:10:10;;;;;;;5.97;2.60;;;5.10;99.90;;;;;;4925810;28;20295;-65
2022/04/02 08:12:41;;;;;;;4.80;3.30;;;5.00;99.90;;;;;;4924542;28;20203;-65
2022/04/02 08:15:17;;;;;;;4.03;2.90;;;5.20;99.90;;;;;;4923988;29;20216;-66
2022/04/02 08:18:02;;;;;;;4.40;3.00;;;5.30;9.30;;;;;;4942376;28;20303;-66
2022/04/02 08:20:30;;;;;;;3.40;2.63;;;5.70;99.90;;;;;;4911020;29;20219;-67
2022/04/02 08:22:57;;;;;;;3.33;2.57;;;5.60;11.70;;;;;;4941737;28;20219;-65
2022/04/02 08:25:27;;;;;;;2.80;2.30;;;7.00;1.00;;;;;;4924952;29;20257;-67
2022/04/02 08:28:07;;;;;;;7.23;3.03;;;7.10;1.00;;;;;;4912636;29;20251;-66
2022/04/02 08:30:47;;;;;;;5.23;3.23;;;8.10;1.00;;;;;;4910393;28;20195;-66
2022/04/02 08:33:43;;;;;;;4.03;2.87;;;7.50;1.00;;;;;;4941228;28;20222;-65
2022/04/02 08:36:22;;;;;;;4.23;3.13;;;6.80;1.00;;;;;;4939361;28;20215;-65
2022/04/02 08:39:06;;;;;;;3.33;2.67;;;7.80;1.00;;;;;;4939877;28;20287;-67
2022/04/02 08:41:42;;;;;;;4.73;3.03;;;8.10;1.00;;;;;;4939778;28;20211;-65
2022/04/02 08:44:31;;;;;;;6.80;3.10;;;8.60;1.00;;;;;;4938466;28;20207;-65
2022/04/02 08:47:29;;;;;;;5.33;3.20;;;8.80;1.00;;;;;;4925640;29;20278;-65
2022/04/02 08:50:10;;;;;;;6.00;3.10;;;9.00;1.00;;;;;;4942113;28;20203;-66
2022/04/02 08:52:51;;;;;;;5.90;3.70;;;8.70;1.00;;;;;;4926760;29;20203;-66
2022/04/02 08:55:29;;;;;;;6.17;3.97;;;9.00;1.00;;;;;;4921849;28;20195;-65
2022/04/02 08:58:16;;;;;;;7.53;4.83;;;8.90;1.00;;;;;;4940739;28;20274;-64
2022/04/02 09:00:55;;;;;;;7.40;4.83;;;10.10;1.00;;;;;;4910755;29;20219;-66
2022/04/02 09:03:49;;;;;;;7.13;4.23;;;9.80;1.00;;;;;;4937529;28;20266;-65
2022/04/02 09:06:35;;;;;;;4.87;3.37;;;10.40;1.00;;;;;;4922013;29;20199;-65
2022/04/02 09:09:05;;;;;;;8.23;5.00;;;9.90;1.00;;;;;;4924036;29;20298;-66
2022/04/02 09:11:34;;;;;;;8.37;4.47;;;9.90;1.00;;;;;;4939194;28;20216;-65
2022/04/02 09:14:19;;;;;;;7.37;4.47;;;10.20;99.90;;;;;;4914998;29;20203;-65
2022/04/02 09:16:54;;;;;;;5.97;4.03;;;10.00;1.00;;;;;;4935911;28;20246;-65
2022/04/02 09:19:48;;;;;;;4.20;3.23;;;9.00;1.00;;;;;;4923438;29;20769;-65
2022/04/02 09:22:36;;;;;;;4.37;3.20;;;9.90;1.00;;;;;;4921023;29;20238;-66
2022/04/02 09:25:29;;;;;;;6.70;4.57;;;8.90;99.90;;;;;;4933655;28;20271;-65
2022/04/02 09:28:19;;;;;;;4.93;4.10;;;8.90;1.00;;;;;;4940236;28;20195;-64
2022/04/02 09:31:18;;;;;;;7.23;4.40;;;8.60;1.00;;;;;;4942537;28;20689;-65
2022/04/02 09:34:04;;;;;;;6.27;3.90;;;7.10;1.00;;;;;;4922802;29;20915;-67
2022/04/02 09:36:59;;;;;;;5.60;4.50;;;7.80;1.00;;;;;;4918207;28;20207;-66
2022/04/02 09:39:45;;;;;;;6.93;4.17;;;6.60;1.00;;;;;;4916281;29;20198;-64
2022/04/02 09:42:33;;;;;;;8.30;3.37;;;7.30;1.00;;;;;;4916376;28;20315;-65
2022/04/02 09:45:16;;;;;;;4.77;3.77;;;7.00;1.00;;;;;;4937514;28;20234;-65
2022/04/02 09:48:08;;;;;;;3.93;3.30;;;7.30;1.00;;;;;;4942084;28;20195;-65
2022/04/02 09:50:35;;;;;;;4.47;3.80;;;5.90;1.00;;;;;;4940507;28;20234;-65
2022/04/02 09:53:08;;;;;;;8.80;4.17;;;5.50;1.00;;;;;;4923944;29;20208;-65
2022/04/02 09:55:44;;;;;;;6.43;3.60;;;6.60;1.00;;;;;;4940721;28;20195;-65
2022/04/02 09:58:30;;;;;;;5.00;3.80;;;8.40;1.00;;;;;;4922886;28;20207;-65
2022/04/02 10:01:04;;;;;;;4.87;3.50;;;8.70;1.00;;;;;;4939543;28;20234;-64
2022/04/02 10:03:38;;;;;;;5.93;3.53;;;7.90;1.00;;;;;;4938697;28;20253;-65
2022/04/02 10:06:21;;;;;;;3.63;3.20;;;7.40;1.00;;;;;;4940429;28;20661;-65
2022/04/02 10:09:03;;;;;;;6.67;3.63;;;7.00;1.00;;;;;;4919729;29;20247;-66
2022/04/02 10:11:32;;;;;;;4.40;3.00;;;8.40;1.00;;;;;;4934970;28;20219;-64
2022/04/02 10:14:01;;;;;;;4.83;3.47;;;8.30;1.00;;;;;;4929857;29;20199;-64
2022/04/02 10:16:29;;;;;;;4.73;3.27;;;7.60;1.00;;;;;;4938851;28;20239;-66
2022/04/02 10:18:59;;;;;;;4.97;3.00;;;7.10;1.00;;;;;;4934462;28;20211;-64
2022/04/02 10:21:29;;;;;;;4.73;2.90;;;7.80;1.00;;;;;;4935111;29;20203;-64
2022/04/02 10:24:22;;;;;;;5.17;3.23;;;7.00;1.00;;;;;;4934509;28;20279;-64
2022/04/02 10:26:55;;;;;;;4.90;2.70;;;9.40;1.00;;;;;;4943476;28;20554;-65
2022/04/02 10:30:03;;;;;;;5.23;2.80;;;10.20;99.90;;;;;;4923187;28;20294;-64
2022/04/02 10:32:37;;;;;;;4.97;2.73;;;10.50;99.90;;;;;;4943069;28;20215;-65
2022/04/02 10:35:08;;;;;;;6.17;3.17;;;9.30;99.90;;;;;;4944010;29;20201;-66
2022/04/02 10:37:43;;;;;;;3.70;3.00;;;7.40;99.90;;;;;;4944140;28;20203;-65
2022/04/02 10:40:18;;;;;;;4.83;3.07;;;6.60;1.00;;;;;;4924674;28;20203;-67
2022/04/02 10:43:02;;;;;;;3.73;2.90;;;6.90;1.00;;;;;;4922768;28;20266;-66
2022/04/02 10:45:29;;;;;;;5.63;3.73;;;6.80;1.00;;;;;;4942052;28;20223;-66
2022/04/02 10:48:12;;;;;;;7.13;3.13;;;7.20;1.00;;;;;;4943084;28;20204;-65
2022/04/02 10:50:41;;;;;;;3.17;2.87;;;8.60;99.90;;;;;;4923478;28;20667;-66
2022/04/02 10:53:11;;;;;;;5.73;3.67;;;9.70;99.90;;;;;;4927561;29;20211;-65
2022/04/02 10:55:45;;;;;;;6.03;4.20;;;10.20;99.90;;;;;;4935234;28;20218;-67
2022/04/02 10:58:13;;;;;;;5.53;3.10;;;9.90;99.90;;;;;;4930027;28;20690;-65
2022/04/02 11:00:47;;;;;;;4.70;3.23;;;7.70;99.90;;;;;;4926216;28;20675;-65
2022/04/02 11:03:39;;;;;;;3.93;3.30;;;6.60;1.00;;;;;;4926362;28;20219;-65
2022/04/02 11:06:09;;;;;;;4.20;3.07;;;6.70;1.00;;;;;;4930451;28;20691;-65
2022/04/02 11:08:37;;;;;;;4.33;2.87;;;6.70;1.00;;;;;;4947301;28;20251;-65
2022/04/02 11:11:16;;;;;;;3.90;3.50;;;7.00;1.00;;;;;;4923304;28;20227;-65
2022/04/02 11:13:44;;;;;;;5.30;3.90;;;7.70;1.00;;;;;;4926493;28;20214;-65
2022/04/02 11:16:16;;;;;;;5.13;2.47;;;7.90;1.00;;;;;;4940575;28;20231;-65
2022/04/02 11:19:54;;;;;;;5.40;3.63;;;6.70;99.90;;;;;;4940211;28;20199;-67
2022/04/02 11:21:43;;;;;;;5.53;3.53;;;6.00;1.00;;;;;;4926628;28;20266;-65
2022/04/02 11:24:16;;;;;;;3.47;2.70;;;6.10;1.00;;;;;;4946830;28;20270;-66
2022/04/02 11:26:49;;;;;;;8.10;2.70;;;6.20;1.00;;;;;;4927838;28;20631;-65
2022/04/02 11:29:21;;;;;;;4.70;3.00;;;6.30;1.00;;;;;;4945462;28;20254;-64
2022/04/02 11:31:50;;;;;;;4.43;4.00;;;6.20;1.00;;;;;;4946232;28;20551;-66
2022/04/02 11:34:19;;;;;;;4.83;3.70;;;6.30;1.00;;;;;;4927629;29;20207;-65
2022/04/02 11:36:48;;;;;;;4.60;3.13;;;6.90;1.00;;;;;;4942765;28;20852;-65
2022/04/02 11:40:02;;;;;;;3.90;2.90;;;6.80;1.00;;;;;;4947863;28;21004;-65
2022/04/02 11:42:33;;;;;;;5.17;3.70;;;6.50;1.00;;;;;;4922463;29;20214;-65
2022/04/02 11:45:06;;;;;;;3.80;3.37;;;7.90;1.00;;;;;;4937931;28;20238;-66
2022/04/02 11:47:37;;;;;;;7.87;5.77;;;8.20;1.00;;;;;;4913850;29;20200;-65
2022/04/02 11:50:08;;;;;;;4.33;3.27;;;7.30;1.00;;;;;;4939207;28;20258;-65
2022/04/02 11:52:56;;;;;;;3.40;2.90;;;6.80;1.00;;;;;;4929231;28;20223;-65
2022/04/02 11:55:24;;;;;;;5.77;3.67;;;5.80;1.00;;;;;;4939976;28;20204;-65
2022/04/02 11:58:03;;;;;;;4.43;3.70;;;5.80;1.00;;;;;;4922363;29;20226;-65
2022/04/02 12:00:32;;;;;;;3.90;3.10;;;6.00;1.00;;;;;;4941590;28;20190;-65
2022/04/02 12:03:00;;;;;;;5.73;3.77;;;6.10;1.00;;;;;;4940557;28;20313;-65
2022/04/02 12:05:44;;;;;;;5.13;3.20;;;6.40;1.00;;;;;;4906708;28;20203;-65
2022/04/02 12:08:29;;;;;;;3.17;2.63;;;6.80;1.00;;;;;;4925822;28;20602;-65
2022/04/02 12:10:58;;;;;;;5.33;3.70;;;5.90;1.00;;;;;;4921498;28;20297;-65
2022/04/02 12:13:26;;;;;;;3.70;3.20;;;5.60;1.00;;;;;;4937276;28;20202;-65
2022/04/02 12:16:13;;;;;;;4.43;3.10;;;5.60;1.00;;;;;;4930621;28;20250;-65
2022/04/02 12:18:57;;;;;;;3.93;3.07;;;5.50;1.00;;;;;;4928378;28;20199;-65
2022/04/02 12:21:51;;;;;;;5.70;3.60;;;5.40;1.00;;;;;;4929585;28;20267;-65
2022/04/02 12:24:18;;;;;;;4.63;3.33;;;5.40;1.00;;;;;;4931116;28;20235;-65
2022/04/02 12:26:49;;;;;;;5.13;3.87;;;5.10;1.00;;;;;;4922514;28;20192;-64
2022/04/02 12:29:19;;;;;;;4.93;3.23;;;4.90;99.90;;;;;;4943587;28;20290;-65
2022/04/02 12:31:51;;;;;;;4.00;2.90;;;4.80;99.90;;;;;;4923053;28;20203;-64
2022/04/02 12:34:25;;;;;;;6.73;3.53;;;4.80;99.90;;;;;;4944012;28;20848;-64
2022/04/02 12:37:01;;;;;;;5.43;4.50;;;4.60;99.90;;;;;;4941433;28;20211;-65
2022/04/02 12:39:28;;;;;;;9.80;4.87;;;4.50;99.90;;;;;;4940813;28;20218;-63
2022/04/02 12:41:55;;;;;;;15.57;7.30;;;4.40;99.90;;;;;;4924523;28;20266;-66
2022/04/02 12:44:23;;;;;;;13.57;6.03;;;4.70;99.90;;;;;;4921526;28;20223;-65
2022/04/02 12:46:51;;;;;;;14.13;8.83;;;4.70;99.90;;;;;;4914199;28;20215;-65
2022/04/02 12:49:33;;;;;;;9.17;5.93;;;5.10;99.90;;;;;;4923949;28;20207;-65
2022/04/02 12:52:20;;;;;;;20.63;11.07;;;5.30;99.90;;;;;;4912334;28;20203;-65
2022/04/02 12:54:55;;;;;;;7.00;4.77;;;5.30;99.90;;;;;;4926783;28;20221;-65
2022/04/02 12:57:23;;;;;;;8.70;5.70;;;5.50;99.90;;;;;;4939493;28;20195;-65
2022/04/02 12:59:55;;;;;;;7.80;5.13;;;6.00;99.90;;;;;;4936945;28;20326;-66
2022/04/02 13:02:25;;;;;;;8.73;4.70;;;6.40;23.10;;;;;;4930353;28;20221;-65
2022/04/02 13:05:01;;;;;;;4.87;4.07;;;6.60;1.00;;;;;;4938215;28;20239;-65
2022/04/02 13:07:30;;;;;;;10.13;6.23;;;6.70;1.00;;;;;;4926693;28;20202;-65
2022/04/02 13:10:06;;;;;;;5.83;4.23;;;6.40;1.00;;;;;;4923258;28;20245;-64
2022/04/02 13:12:34;;;;;;;9.23;5.07;;;6.30;1.00;;;;;;4928912;29;20202;-64
2022/04/02 13:15:09;;;;;;;4.90;3.70;;;6.20;1.00;;;;;;4939817;28;20677;-64
2022/04/02 13:20:28;;;;;;;5.87;4.60;;;6.70;1.00;;;;;;4939762;28;20234;-65
2022/04/02 13:20:38;;;;;;;6.50;4.23;;;6.60;1.00;;;;;;4927909;28;20730;-65
2022/04/02 13:23:07;;;;;;;6.57;3.77;;;6.10;1.00;;;;;;4923148;28;21015;-64
2022/04/02 13:25:53;;;;;;;6.73;4.10;;;6.10;1.00;;;;;;4908893;29;20226;-65
2022/04/02 13:28:57;;;;;;;4.23;3.50;;;6.00;1.00;;;;;;4942807;28;20208;-65
2022/04/02 13:31:29;;;;;;;6.63;3.47;;;6.10;1.00;;;;;;4924538;28;20222;-65
2022/04/02 13:34:10;;;;;;;5.23;3.70;;;6.10;1.00;;;;;;4917445;28;20199;-65
2022/04/02 13:36:55;;;;;;;8.63;4.27;;;6.40;1.00;;;;;;4941416;28;20787;-67
2022/04/02 13:39:27;;;;;;;4.10;3.37;;;6.70;1.00;;;;;;4923621;28;20322;-65
2022/04/02 13:41:57;;;;;;;5.93;4.43;;;7.20;1.00;;;;;;4937467;28;20203;-65
2022/04/02 13:44:31;;;;;;;3.83;3.00;;;7.70;1.00;;;;;;4919570;29;20285;-65